sensor_id;sensor_type;location;lat;lon;timestamp;P1;durP1;ratioP1;P2;durP2;ratioP2
72941;SDS011;69665;55.822;37.330;2023-11-19T00:02:07;38.80;;;12.00;;
72941;SDS011;69665;55.822;37.330;2023-11-19T00:04:36;39.95;;;14.23;;
72941;SDS011;69665;55.822;37.330;2023-11-19T00:07:02;31.88;;;12.63;;
72941;SDS011;69665;55.822;37.330;2023-11-19T00:09:29;29.23;;;12.20;;
72941;SDS011;69665;55.822;37.330;2023-11-19T00:11:55;30.20;;;12.55;;
72941;SDS011;69665;55.822;37.330;2023-11-19T00:14:21;31.33;;;13.63;;
72941;SDS011;69665;55.822;37.330;2023-11-19T00:16:46;33.38;;;12.80;;
72941;SDS011;69665;55.822;37.330;2023-11-19T00:19:12;40.42;;;12.07;;
72941;SDS011;69665;55.822;37.330;2023-11-19T00:21:37;30.02;;;12.68;;
72941;SDS011;69665;55.822;37.330;2023-11-19T00:24:03;27.15;;;11.98;;
72941;SDS011;69665;55.822;37.330;2023-11-19T00:26:29;28.80;;;11.60;;
72941;SDS011;69665;55.822;37.330;2023-11-19T00:28:56;30.52;;;11.80;;
72941;SDS011;69665;55.822;37.330;2023-11-19T00:31:23;29.02;;;11.20;;
72941;SDS011;69665;55.822;37.330;2023-11-19T00:33:48;22.08;;;10.95;;
72941;SDS011;69665;55.822;37.330;2023-11-19T00:36:14;26.40;;;10.90;;
72941;SDS011;69665;55.822;37.330;2023-11-19T00:38:40;30.75;;;11.75;;
72941;SDS011;69665;55.822;37.330;2023-11-19T00:41:05;23.55;;;10.20;;
72941;SDS011;69665;55.822;37.330;2023-11-19T00:43:31;32.83;;;11.25;;
72941;SDS011;69665;55.822;37.330;2023-11-19T00:45:57;31.67;;;12.05;;
72941;SDS011;69665;55.822;37.330;2023-11-19T00:48:22;31.88;;;12.85;;
72941;SDS011;69665;55.822;37.330;2023-11-19T00:50:48;28.30;;;11.75;;
72941;SDS011;69665;55.822;37.330;2023-11-19T00:53:14;34.00;;;11.73;;
72941;SDS011;69665;55.822;37.330;2023-11-19T00:55:40;27.33;;;11.05;;
72941;SDS011;69665;55.822;37.330;2023-11-19T00:58:06;26.75;;;10.93;;
72941;SDS011;69665;55.822;37.330;2023-11-19T01:00:31;20.52;;;10.07;;
72941;SDS011;69665;55.822;37.330;2023-11-19T01:02:58;27.80;;;10.52;;
72941;SDS011;69665;55.822;37.330;2023-11-19T01:05:23;27.38;;;11.48;;
72941;SDS011;69665;55.822;37.330;2023-11-19T01:07:51;22.90;;;10.50;;
72941;SDS011;69665;55.822;37.330;2023-11-19T01:10:19;27.25;;;10.05;;
72941;SDS011;69665;55.822;37.330;2023-11-19T01:12:44;27.10;;;10.68;;
72941;SDS011;69665;55.822;37.330;2023-11-19T01:15:10;33.50;;;11.25;;
72941;SDS011;69665;55.822;37.330;2023-11-19T01:17:38;22.10;;;10.32;;
72941;SDS011;69665;55.822;37.330;2023-11-19T01:20:04;29.42;;;11.00;;
72941;SDS011;69665;55.822;37.330;2023-11-19T01:22:33;25.00;;;10.32;;
72941;SDS011;69665;55.822;37.330;2023-11-19T01:24:58;22.35;;;9.82;;
72941;SDS011;69665;55.822;37.330;2023-11-19T01:27:24;25.60;;;10.60;;
72941;SDS011;69665;55.822;37.330;2023-11-19T01:29:50;31.05;;;11.35;;
72941;SDS011;69665;55.822;37.330;2023-11-19T01:32:16;23.20;;;10.63;;
72941;SDS011;69665;55.822;37.330;2023-11-19T01:34:41;32.38;;;11.02;;
72941;SDS011;69665;55.822;37.330;2023-11-19T01:37:07;29.63;;;11.25;;
72941;SDS011;69665;55.822;37.330;2023-11-19T01:39:35;24.20;;;10.88;;
72941;SDS011;69665;55.822;37.330;2023-11-19T01:42:01;26.20;;;10.18;;
72941;SDS011;69665;55.822;37.330;2023-11-19T01:44:26;30.95;;;11.18;;
72941;SDS011;69665;55.822;37.330;2023-11-19T01:46:52;32.15;;;11.27;;
72941;SDS011;69665;55.822;37.330;2023-11-19T01:49:17;27.13;;;11.65;;
72941;SDS011;69665;55.822;37.330;2023-11-19T01:51:45;32.58;;;11.80;;
72941;SDS011;69665;55.822;37.330;2023-11-19T01:54:11;21.65;;;11.38;;
72941;SDS011;69665;55.822;37.330;2023-11-19T01:56:37;27.50;;;11.68;;
72941;SDS011;69665;55.822;37.330;2023-11-19T01:59:06;24.23;;;10.35;;
72941;SDS011;69665;55.822;37.330;2023-11-19T02:01:32;22.40;;;10.20;;
72941;SDS011;69665;55.822;37.330;2023-11-19T02:04:00;30.35;;;11.90;;
72941;SDS011;69665;55.822;37.330;2023-11-19T02:06:27;28.63;;;12.52;;
72941;SDS011;69665;55.822;37.330;2023-11-19T02:08:53;21.75;;;10.00;;
72941;SDS011;69665;55.822;37.330;2023-11-19T02:11:18;23.67;;;10.30;;
72941;SDS011;69665;55.822;37.330;2023-11-19T02:13:44;27.00;;;10.65;;
72941;SDS011;69665;55.822;37.330;2023-11-19T02:16:10;28.20;;;11.05;;
72941;SDS011;69665;55.822;37.330;2023-11-19T02:18:36;29.38;;;10.80;;
72941;SDS011;69665;55.822;37.330;2023-11-19T02:21:02;26.75;;;11.23;;
72941;SDS011;69665;55.822;37.330;2023-11-19T02:23:28;25.45;;;11.10;;
72941;SDS011;69665;55.822;37.330;2023-11-19T02:28:34;22.13;;;9.80;;
72941;SDS011;69665;55.822;37.330;2023-11-19T02:31:01;28.55;;;11.23;;
72941;SDS011;69665;55.822;37.330;2023-11-19T02:33:26;34.80;;;12.75;;
72941;SDS011;69665;55.822;37.330;2023-11-19T02:35:52;29.10;;;11.20;;
72941;SDS011;69665;55.822;37.330;2023-11-19T02:38:18;25.38;;;11.63;;
72941;SDS011;69665;55.822;37.330;2023-11-19T02:40:44;30.58;;;12.43;;
72941;SDS011;69665;55.822;37.330;2023-11-19T02:43:09;33.05;;;11.68;;
72941;SDS011;69665;55.822;37.330;2023-11-19T02:45:35;28.27;;;11.20;;
72941;SDS011;69665;55.822;37.330;2023-11-19T02:48:02;25.65;;;11.07;;
72941;SDS011;69665;55.822;37.330;2023-11-19T02:50:27;29.10;;;11.77;;
72941;SDS011;69665;55.822;37.330;2023-11-19T02:52:54;34.72;;;13.10;;
72941;SDS011;69665;55.822;37.330;2023-11-19T02:55:22;28.02;;;12.15;;
72941;SDS011;69665;55.822;37.330;2023-11-19T02:57:49;28.65;;;11.45;;
72941;SDS011;69665;55.822;37.330;2023-11-19T03:00:15;24.98;;;11.35;;
72941;SDS011;69665;55.822;37.330;2023-11-19T03:02:41;28.27;;;12.40;;
72941;SDS011;69665;55.822;37.330;2023-11-19T03:05:12;27.17;;;11.02;;
72941;SDS011;69665;55.822;37.330;2023-11-19T03:07:43;28.85;;;11.85;;
72941;SDS011;69665;55.822;37.330;2023-11-19T03:10:10;27.30;;;11.88;;
72941;SDS011;69665;55.822;37.330;2023-11-19T03:12:42;25.85;;;11.02;;
72941;SDS011;69665;55.822;37.330;2023-11-19T03:15:08;23.70;;;10.10;;
72941;SDS011;69665;55.822;37.330;2023-11-19T03:17:40;20.20;;;10.10;;
72941;SDS011;69665;55.822;37.330;2023-11-19T03:20:07;28.33;;;10.40;;
72941;SDS011;69665;55.822;37.330;2023-11-19T03:22:37;21.27;;;10.10;;
72941;SDS011;69665;55.822;37.330;2023-11-19T03:25:04;20.17;;;10.77;;
72941;SDS011;69665;55.822;37.330;2023-11-19T03:27:31;31.45;;;11.95;;
72941;SDS011;69665;55.822;37.330;2023-11-19T03:29:57;25.88;;;11.00;;
72941;SDS011;69665;55.822;37.330;2023-11-19T03:32:22;24.27;;;11.90;;
72941;SDS011;69665;55.822;37.330;2023-11-19T03:34:48;29.92;;;11.40;;
72941;SDS011;69665;55.822;37.330;2023-11-19T03:37:13;28.10;;;10.68;;
72941;SDS011;69665;55.822;37.330;2023-11-19T03:39:43;26.58;;;10.80;;
72941;SDS011;69665;55.822;37.330;2023-11-19T03:42:09;29.33;;;11.10;;
72941;SDS011;69665;55.822;37.330;2023-11-19T03:44:35;30.60;;;12.00;;
72941;SDS011;69665;55.822;37.330;2023-11-19T03:47:00;26.95;;;12.07;;
72941;SDS011;69665;55.822;37.330;2023-11-19T03:49:26;25.15;;;9.85;;
72941;SDS011;69665;55.822;37.330;2023-11-19T03:51:52;22.38;;;10.77;;
72941;SDS011;69665;55.822;37.330;2023-11-19T03:54:20;30.40;;;12.13;;
72941;SDS011;69665;55.822;37.330;2023-11-19T03:56:48;24.63;;;10.00;;
72941;SDS011;69665;55.822;37.330;2023-11-19T03:59:14;23.67;;;11.00;;
72941;SDS011;69665;55.822;37.330;2023-11-19T04:01:40;27.30;;;11.30;;
72941;SDS011;69665;55.822;37.330;2023-11-19T04:04:06;36.40;;;11.93;;
72941;SDS011;69665;55.822;37.330;2023-11-19T04:06:32;33.58;;;13.55;;
72941;SDS011;69665;55.822;37.330;2023-11-19T04:08:57;33.13;;;12.38;;
72941;SDS011;69665;55.822;37.330;2023-11-19T04:11:23;27.83;;;12.32;;
72941;SDS011;69665;55.822;37.330;2023-11-19T04:13:48;28.48;;;11.70;;
72941;SDS011;69665;55.822;37.330;2023-11-19T04:16:14;27.85;;;12.18;;
72941;SDS011;69665;55.822;37.330;2023-11-19T04:18:40;34.08;;;12.60;;
72941;SDS011;69665;55.822;37.330;2023-11-19T04:21:06;29.42;;;12.10;;
72941;SDS011;69665;55.822;37.330;2023-11-19T04:23:32;28.52;;;12.50;;
72941;SDS011;69665;55.822;37.330;2023-11-19T04:25:58;28.13;;;11.95;;
72941;SDS011;69665;55.822;37.330;2023-11-19T04:28:23;40.03;;;13.88;;
72941;SDS011;69665;55.822;37.330;2023-11-19T04:30:52;27.15;;;12.18;;
72941;SDS011;69665;55.822;37.330;2023-11-19T04:33:18;34.70;;;14.48;;
72941;SDS011;69665;55.822;37.330;2023-11-19T04:35:43;33.47;;;13.55;;
72941;SDS011;69665;55.822;37.330;2023-11-19T04:38:09;33.80;;;12.77;;
72941;SDS011;69665;55.822;37.330;2023-11-19T04:40:34;30.77;;;13.52;;
72941;SDS011;69665;55.822;37.330;2023-11-19T04:43:00;31.08;;;13.32;;
72941;SDS011;69665;55.822;37.330;2023-11-19T04:45:25;77.47;;;26.92;;
72941;SDS011;69665;55.822;37.330;2023-11-19T04:47:51;108.60;;;33.30;;
72941;SDS011;69665;55.822;37.330;2023-11-19T04:50:16;104.60;;;35.35;;
72941;SDS011;69665;55.822;37.330;2023-11-19T04:52:43;69.28;;;24.38;;
72941;SDS011;69665;55.822;37.330;2023-11-19T04:55:11;56.00;;;20.00;;
72941;SDS011;69665;55.822;37.330;2023-11-19T04:57:37;36.92;;;14.00;;
72941;SDS011;69665;55.822;37.330;2023-11-19T05:00:03;35.03;;;13.77;;
72941;SDS011;69665;55.822;37.330;2023-11-19T05:02:31;31.00;;;11.80;;
72941;SDS011;69665;55.822;37.330;2023-11-19T05:04:56;32.10;;;13.27;;
72941;SDS011;69665;55.822;37.330;2023-11-19T05:07:22;27.55;;;12.80;;
72941;SDS011;69665;55.822;37.330;2023-11-19T05:09:48;28.02;;;12.60;;
72941;SDS011;69665;55.822;37.330;2023-11-19T05:12:13;32.05;;;13.07;;
72941;SDS011;69665;55.822;37.330;2023-11-19T05:14:39;26.90;;;11.38;;
72941;SDS011;69665;55.822;37.330;2023-11-19T05:17:04;30.42;;;12.25;;
72941;SDS011;69665;55.822;37.330;2023-11-19T05:19:30;37.35;;;13.32;;
72941;SDS011;69665;55.822;37.330;2023-11-19T05:21:55;26.90;;;12.23;;
72941;SDS011;69665;55.822;37.330;2023-11-19T05:24:21;25.70;;;10.98;;
72941;SDS011;69665;55.822;37.330;2023-11-19T05:26:46;23.80;;;11.15;;
72941;SDS011;69665;55.822;37.330;2023-11-19T05:29:12;27.90;;;11.57;;
72941;SDS011;69665;55.822;37.330;2023-11-19T05:31:38;26.42;;;10.98;;
72941;SDS011;69665;55.822;37.330;2023-11-19T05:34:04;25.42;;;10.98;;
72941;SDS011;69665;55.822;37.330;2023-11-19T05:36:29;30.00;;;11.40;;
72941;SDS011;69665;55.822;37.330;2023-11-19T05:38:55;28.15;;;11.85;;
72941;SDS011;69665;55.822;37.330;2023-11-19T05:41:21;29.63;;;10.85;;
72941;SDS011;69665;55.822;37.330;2023-11-19T05:43:46;23.05;;;9.35;;
72941;SDS011;69665;55.822;37.330;2023-11-19T05:46:12;23.75;;;9.45;;
72941;SDS011;69665;55.822;37.330;2023-11-19T05:48:38;21.58;;;9.82;;
72941;SDS011;69665;55.822;37.330;2023-11-19T05:51:04;28.10;;;10.52;;
72941;SDS011;69665;55.822;37.330;2023-11-19T05:53:31;21.13;;;9.80;;
72941;SDS011;69665;55.822;37.330;2023-11-19T05:55:56;21.55;;;9.18;;
72941;SDS011;69665;55.822;37.330;2023-11-19T05:58:25;24.25;;;10.65;;
72941;SDS011;69665;55.822;37.330;2023-11-19T06:00:52;26.27;;;10.25;;
72941;SDS011;69665;55.822;37.330;2023-11-19T06:03:20;25.25;;;9.10;;
72941;SDS011;69665;55.822;37.330;2023-11-19T06:05:47;22.75;;;10.02;;
72941;SDS011;69665;55.822;37.330;2023-11-19T06:08:12;27.75;;;10.27;;
72941;SDS011;69665;55.822;37.330;2023-11-19T06:10:39;24.50;;;9.98;;
72941;SDS011;69665;55.822;37.330;2023-11-19T06:13:04;22.15;;;9.45;;
72941;SDS011;69665;55.822;37.330;2023-11-19T06:15:30;21.15;;;8.50;;
72941;SDS011;69665;55.822;37.330;2023-11-19T06:17:58;27.30;;;10.73;;
72941;SDS011;69665;55.822;37.330;2023-11-19T06:20:26;30.05;;;9.85;;
72941;SDS011;69665;55.822;37.330;2023-11-19T06:22:53;20.13;;;8.30;;
72941;SDS011;69665;55.822;37.330;2023-11-19T06:25:19;21.35;;;9.07;;
72941;SDS011;69665;55.822;37.330;2023-11-19T06:27:44;22.67;;;9.20;;
72941;SDS011;69665;55.822;37.330;2023-11-19T06:30:10;23.20;;;8.88;;
72941;SDS011;69665;55.822;37.330;2023-11-19T06:32:37;26.83;;;10.88;;
72941;SDS011;69665;55.822;37.330;2023-11-19T06:35:02;31.88;;;11.95;;
72941;SDS011;69665;55.822;37.330;2023-11-19T06:37:30;34.13;;;11.27;;
72941;SDS011;69665;55.822;37.330;2023-11-19T06:39:55;25.95;;;11.32;;
72941;SDS011;69665;55.822;37.330;2023-11-19T06:42:21;23.88;;;10.15;;
72941;SDS011;69665;55.822;37.330;2023-11-19T06:44:46;30.25;;;10.82;;
72941;SDS011;69665;55.822;37.330;2023-11-19T06:47:12;22.05;;;10.00;;
72941;SDS011;69665;55.822;37.330;2023-11-19T06:49:38;23.80;;;10.82;;
72941;SDS011;69665;55.822;37.330;2023-11-19T06:52:03;28.38;;;8.95;;
72941;SDS011;69665;55.822;37.330;2023-11-19T06:54:29;19.90;;;8.82;;
72941;SDS011;69665;55.822;37.330;2023-11-19T06:56:56;25.05;;;10.00;;
72941;SDS011;69665;55.822;37.330;2023-11-19T06:59:22;22.67;;;10.73;;
72941;SDS011;69665;55.822;37.330;2023-11-19T07:01:48;23.60;;;9.68;;
72941;SDS011;69665;55.822;37.330;2023-11-19T07:04:14;19.48;;;10.82;;
72941;SDS011;69665;55.822;37.330;2023-11-19T07:06:39;24.13;;;9.80;;
72941;SDS011;69665;55.822;37.330;2023-11-19T07:09:08;27.95;;;10.32;;
72941;SDS011;69665;55.822;37.330;2023-11-19T07:11:40;25.98;;;10.77;;
72941;SDS011;69665;55.822;37.330;2023-11-19T07:14:07;23.15;;;10.95;;
72941;SDS011;69665;55.822;37.330;2023-11-19T07:16:33;26.67;;;10.93;;
72941;SDS011;69665;55.822;37.330;2023-11-19T07:19:05;31.33;;;11.98;;
72941;SDS011;69665;55.822;37.330;2023-11-19T07:21:31;25.85;;;10.77;;
72941;SDS011;69665;55.822;37.330;2023-11-19T07:23:56;25.98;;;10.90;;
72941;SDS011;69665;55.822;37.330;2023-11-19T07:26:22;25.33;;;10.90;;
72941;SDS011;69665;55.822;37.330;2023-11-19T07:28:48;29.42;;;10.77;;
72941;SDS011;69665;55.822;37.330;2023-11-19T07:31:14;25.42;;;10.57;;
72941;SDS011;69665;55.822;37.330;2023-11-19T07:33:40;25.08;;;10.38;;
72941;SDS011;69665;55.822;37.330;2023-11-19T07:36:08;24.60;;;10.05;;
72941;SDS011;69665;55.822;37.330;2023-11-19T07:38:34;22.33;;;9.93;;
72941;SDS011;69665;55.822;37.330;2023-11-19T07:40:59;22.38;;;10.77;;
72941;SDS011;69665;55.822;37.330;2023-11-19T07:43:25;26.42;;;10.30;;
72941;SDS011;69665;55.822;37.330;2023-11-19T07:45:51;20.70;;;9.70;;
72941;SDS011;69665;55.822;37.330;2023-11-19T07:48:16;22.98;;;9.98;;
72941;SDS011;69665;55.822;37.330;2023-11-19T07:50:43;23.65;;;10.02;;
72941;SDS011;69665;55.822;37.330;2023-11-19T07:53:08;21.83;;;9.75;;
72941;SDS011;69665;55.822;37.330;2023-11-19T07:55:34;29.15;;;10.23;;
72941;SDS011;69665;55.822;37.330;2023-11-19T07:58:00;29.52;;;10.70;;
72941;SDS011;69665;55.822;37.330;2023-11-19T08:00:26;25.05;;;10.18;;
72941;SDS011;69665;55.822;37.330;2023-11-19T08:02:52;19.98;;;10.23;;
72941;SDS011;69665;55.822;37.330;2023-11-19T08:05:17;24.45;;;9.20;;
72941;SDS011;69665;55.822;37.330;2023-11-19T08:07:43;19.15;;;9.02;;
72941;SDS011;69665;55.822;37.330;2023-11-19T08:10:08;24.35;;;8.15;;
72941;SDS011;69665;55.822;37.330;2023-11-19T08:12:37;19.75;;;9.57;;
72941;SDS011;69665;55.822;37.330;2023-11-19T08:15:03;21.33;;;8.90;;
72941;SDS011;69665;55.822;37.330;2023-11-19T08:17:31;24.80;;;9.60;;
72941;SDS011;69665;55.822;37.330;2023-11-19T08:19:56;19.50;;;9.05;;
72941;SDS011;69665;55.822;37.330;2023-11-19T08:22:22;23.30;;;9.05;;
72941;SDS011;69665;55.822;37.330;2023-11-19T08:24:48;21.80;;;9.05;;
72941;SDS011;69665;55.822;37.330;2023-11-19T08:27:13;23.67;;;9.15;;
72941;SDS011;69665;55.822;37.330;2023-11-19T08:29:39;25.23;;;9.35;;
72941;SDS011;69665;55.822;37.330;2023-11-19T08:32:05;18.17;;;8.48;;
72941;SDS011;69665;55.822;37.330;2023-11-19T08:34:31;20.83;;;8.30;;
72941;SDS011;69665;55.822;37.330;2023-11-19T08:36:57;21.60;;;8.15;;
72941;SDS011;69665;55.822;37.330;2023-11-19T08:39:22;18.60;;;8.98;;
72941;SDS011;69665;55.822;37.330;2023-11-19T08:41:48;22.95;;;8.57;;
72941;SDS011;69665;55.822;37.330;2023-11-19T08:44:14;19.70;;;8.70;;
72941;SDS011;69665;55.822;37.330;2023-11-19T08:46:46;17.52;;;8.00;;
72941;SDS011;69665;55.822;37.330;2023-11-19T08:49:11;19.63;;;8.82;;
72941;SDS011;69665;55.822;37.330;2023-11-19T08:51:37;22.05;;;9.20;;
72941;SDS011;69665;55.822;37.330;2023-11-19T08:54:02;24.70;;;9.13;;
72941;SDS011;69665;55.822;37.330;2023-11-19T08:56:28;22.42;;;8.70;;
72941;SDS011;69665;55.822;37.330;2023-11-19T08:58:58;19.10;;;8.75;;
72941;SDS011;69665;55.822;37.330;2023-11-19T09:01:23;24.52;;;10.88;;
72941;SDS011;69665;55.822;37.330;2023-11-19T09:03:50;24.52;;;9.48;;
72941;SDS011;69665;55.822;37.330;2023-11-19T09:06:15;18.20;;;7.80;;
72941;SDS011;69665;55.822;37.330;2023-11-19T09:08:42;20.33;;;8.43;;
72941;SDS011;69665;55.822;37.330;2023-11-19T09:11:07;17.30;;;8.55;;
72941;SDS011;69665;55.822;37.330;2023-11-19T09:13:34;19.10;;;9.05;;
72941;SDS011;69665;55.822;37.330;2023-11-19T09:16:00;15.32;;;7.43;;
72941;SDS011;69665;55.822;37.330;2023-11-19T09:18:29;16.73;;;7.75;;
72941;SDS011;69665;55.822;37.330;2023-11-19T09:20:54;20.88;;;8.95;;
72941;SDS011;69665;55.822;37.330;2023-11-19T09:23:20;16.10;;;7.28;;
72941;SDS011;69665;55.822;37.330;2023-11-19T09:25:45;15.10;;;7.05;;
72941;SDS011;69665;55.822;37.330;2023-11-19T09:28:11;12.70;;;5.97;;
72941;SDS011;69665;55.822;37.330;2023-11-19T09:30:36;18.77;;;7.28;;
72941;SDS011;69665;55.822;37.330;2023-11-19T09:33:02;15.63;;;7.20;;
72941;SDS011;69665;55.822;37.330;2023-11-19T09:35:28;17.92;;;7.68;;
72941;SDS011;69665;55.822;37.330;2023-11-19T09:37:53;17.83;;;7.68;;
72941;SDS011;69665;55.822;37.330;2023-11-19T09:40:19;15.70;;;8.00;;
72941;SDS011;69665;55.822;37.330;2023-11-19T09:42:46;15.20;;;6.70;;
72941;SDS011;69665;55.822;37.330;2023-11-19T09:45:16;17.55;;;7.22;;
72941;SDS011;69665;55.822;37.330;2023-11-19T09:47:45;15.30;;;6.35;;
72941;SDS011;69665;55.822;37.330;2023-11-19T09:50:18;12.93;;;5.43;;
72941;SDS011;69665;55.822;37.330;2023-11-19T09:52:45;10.57;;;4.45;;
72941;SDS011;69665;55.822;37.330;2023-11-19T09:55:10;10.57;;;4.60;;
72941;SDS011;69665;55.822;37.330;2023-11-19T09:57:37;12.27;;;4.80;;
72941;SDS011;69665;55.822;37.330;2023-11-19T10:00:03;15.52;;;4.70;;
72941;SDS011;69665;55.822;37.330;2023-11-19T10:02:33;14.48;;;5.55;;
72941;SDS011;69665;55.822;37.330;2023-11-19T10:04:59;12.10;;;5.45;;
72941;SDS011;69665;55.822;37.330;2023-11-19T10:07:25;10.00;;;4.90;;
72941;SDS011;69665;55.822;37.330;2023-11-19T10:09:50;13.52;;;5.43;;
72941;SDS011;69665;55.822;37.330;2023-11-19T10:12:16;14.23;;;5.13;;
72941;SDS011;69665;55.822;37.330;2023-11-19T10:14:42;13.57;;;5.45;;
72941;SDS011;69665;55.822;37.330;2023-11-19T10:17:08;12.55;;;5.00;;
72941;SDS011;69665;55.822;37.330;2023-11-19T10:19:34;14.68;;;5.65;;
72941;SDS011;69665;55.822;37.330;2023-11-19T10:22:06;11.68;;;4.93;;
72941;SDS011;69665;55.822;37.330;2023-11-19T10:24:32;12.85;;;5.43;;
72941;SDS011;69665;55.822;37.330;2023-11-19T10:27:06;15.90;;;5.82;;
72941;SDS011;69665;55.822;37.330;2023-11-19T10:29:37;14.15;;;6.07;;
72941;SDS011;69665;55.822;37.330;2023-11-19T10:32:03;15.60;;;6.18;;
72941;SDS011;69665;55.822;37.330;2023-11-19T10:34:29;16.35;;;5.57;;
72941;SDS011;69665;55.822;37.330;2023-11-19T10:36:55;12.75;;;5.93;;
72941;SDS011;69665;55.822;37.330;2023-11-19T10:39:21;12.40;;;5.50;;
72941;SDS011;69665;55.822;37.330;2023-11-19T10:41:46;14.60;;;5.68;;
72941;SDS011;69665;55.822;37.330;2023-11-19T10:44:12;13.80;;;5.88;;
72941;SDS011;69665;55.822;37.330;2023-11-19T10:46:38;17.02;;;6.68;;
72941;SDS011;69665;55.822;37.330;2023-11-19T10:49:05;15.38;;;6.03;;
72941;SDS011;69665;55.822;37.330;2023-11-19T10:51:32;14.57;;;5.72;;
72941;SDS011;69665;55.822;37.330;2023-11-19T10:53:59;16.95;;;5.93;;
72941;SDS011;69665;55.822;37.330;2023-11-19T10:56:26;14.88;;;6.10;;
72941;SDS011;69665;55.822;37.330;2023-11-19T10:58:54;11.30;;;5.25;;
72941;SDS011;69665;55.822;37.330;2023-11-19T11:01:20;12.90;;;5.53;;
72941;SDS011;69665;55.822;37.330;2023-11-19T11:03:50;15.27;;;5.85;;
72941;SDS011;69665;55.822;37.330;2023-11-19T11:06:16;18.38;;;6.93;;
72941;SDS011;69665;55.822;37.330;2023-11-19T11:08:42;17.00;;;6.60;;
72941;SDS011;69665;55.822;37.330;2023-11-19T11:11:08;17.02;;;7.07;;
72941;SDS011;69665;55.822;37.330;2023-11-19T11:13:35;13.25;;;6.38;;
72941;SDS011;69665;55.822;37.330;2023-11-19T11:16:02;16.88;;;6.40;;
72941;SDS011;69665;55.822;37.330;2023-11-19T11:18:29;15.10;;;6.10;;
72941;SDS011;69665;55.822;37.330;2023-11-19T11:21:11;11.57;;;5.47;;
72941;SDS011;69665;55.822;37.330;2023-11-19T11:37:42;18.45;;;7.45;;
72941;SDS011;69665;55.822;37.330;2023-11-19T11:39:49;15.18;;;6.63;;
72941;SDS011;69665;55.822;37.330;2023-11-19T11:50:08;16.63;;;6.35;;
72941;SDS011;69665;55.822;37.330;2023-11-19T11:52:33;15.18;;;7.50;;
72941;SDS011;69665;55.822;37.330;2023-11-19T11:55:08;17.40;;;6.07;;
72941;SDS011;69665;55.822;37.330;2023-11-19T11:57:37;15.88;;;6.60;;
72941;SDS011;69665;55.822;37.330;2023-11-19T12:00:03;16.20;;;6.97;;
72941;SDS011;69665;55.822;37.330;2023-11-19T12:02:31;19.48;;;7.90;;
72941;SDS011;69665;55.822;37.330;2023-11-19T12:04:56;18.33;;;7.22;;
72941;SDS011;69665;55.822;37.330;2023-11-19T12:07:22;20.77;;;7.47;;
72941;SDS011;69665;55.822;37.330;2023-11-19T12:09:51;15.38;;;7.57;;
72941;SDS011;69665;55.822;37.330;2023-11-19T12:12:18;17.63;;;6.18;;
72941;SDS011;69665;55.822;37.330;2023-11-19T12:15:04;16.05;;;7.40;;
72941;SDS011;69665;55.822;37.330;2023-11-19T12:20:01;15.40;;;7.25;;
72941;SDS011;69665;55.822;37.330;2023-11-19T12:22:29;19.15;;;7.07;;
72941;SDS011;69665;55.822;37.330;2023-11-19T12:24:55;14.50;;;7.32;;
72941;SDS011;69665;55.822;37.330;2023-11-19T12:27:21;21.52;;;7.93;;
72941;SDS011;69665;55.822;37.330;2023-11-19T12:29:50;14.05;;;6.97;;
72941;SDS011;69665;55.822;37.330;2023-11-19T12:32:16;18.00;;;7.63;;
72941;SDS011;69665;55.822;37.330;2023-11-19T12:34:41;15.75;;;7.72;;
72941;SDS011;69665;55.822;37.330;2023-11-19T12:37:07;17.08;;;7.38;;
72941;SDS011;69665;55.822;37.330;2023-11-19T12:39:35;17.67;;;6.65;;
72941;SDS011;69665;55.822;37.330;2023-11-19T12:42:01;20.40;;;7.90;;
72941;SDS011;69665;55.822;37.330;2023-11-19T12:44:26;16.63;;;7.88;;
72941;SDS011;69665;55.822;37.330;2023-11-19T12:47:04;18.08;;;7.07;;
72941;SDS011;69665;55.822;37.330;2023-11-19T12:49:31;14.23;;;6.57;;
72941;SDS011;69665;55.822;37.330;2023-11-19T12:51:56;15.88;;;6.93;;
72941;SDS011;69665;55.822;37.330;2023-11-19T12:54:31;15.25;;;6.38;;
72941;SDS011;69665;55.822;37.330;2023-11-19T12:56:57;15.52;;;7.22;;
72941;SDS011;69665;55.822;37.330;2023-11-19T12:59:24;19.63;;;8.02;;
72941;SDS011;69665;55.822;37.330;2023-11-19T13:01:58;16.88;;;7.00;;
72941;SDS011;69665;55.822;37.330;2023-11-19T13:04:27;17.42;;;7.40;;
72941;SDS011;69665;55.822;37.330;2023-11-19T13:06:54;23.55;;;8.20;;
72941;SDS011;69665;55.822;37.330;2023-11-19T13:11:49;21.42;;;7.95;;
72941;SDS011;69665;55.822;37.330;2023-11-19T13:14:15;19.67;;;7.57;;
72941;SDS011;69665;55.822;37.330;2023-11-19T13:16:41;22.48;;;7.63;;
72941;SDS011;69665;55.822;37.330;2023-11-19T13:19:07;14.48;;;6.70;;
72941;SDS011;69665;55.822;37.330;2023-11-19T13:21:34;18.63;;;6.97;;
72941;SDS011;69665;55.822;37.330;2023-11-19T13:23:59;15.40;;;6.47;;
72941;SDS011;69665;55.822;37.330;2023-11-19T13:26:25;14.98;;;6.25;;
72941;SDS011;69665;55.822;37.330;2023-11-19T13:28:51;17.38;;;6.43;;
72941;SDS011;69665;55.822;37.330;2023-11-19T13:31:17;19.73;;;6.85;;
72941;SDS011;69665;55.822;37.330;2023-11-19T13:33:42;16.20;;;7.15;;
72941;SDS011;69665;55.822;37.330;2023-11-19T13:36:08;13.18;;;5.80;;
72941;SDS011;69665;55.822;37.330;2023-11-19T13:38:35;15.43;;;7.07;;
72941;SDS011;69665;55.822;37.330;2023-11-19T13:41:03;16.33;;;5.70;;
72941;SDS011;69665;55.822;37.330;2023-11-19T13:43:34;13.40;;;5.72;;
72941;SDS011;69665;55.822;37.330;2023-11-19T13:45:59;14.80;;;6.57;;
72941;SDS011;69665;55.822;37.330;2023-11-19T13:48:25;14.27;;;5.20;;
72941;SDS011;69665;55.822;37.330;2023-11-19T13:50:52;12.10;;;5.38;;
72941;SDS011;69665;55.822;37.330;2023-11-19T13:53:21;15.52;;;5.70;;
72941;SDS011;69665;55.822;37.330;2023-11-19T13:55:48;15.32;;;4.70;;
72941;SDS011;69665;55.822;37.330;2023-11-19T13:58:13;13.88;;;4.88;;
72941;SDS011;69665;55.822;37.330;2023-11-19T14:00:39;13.80;;;5.00;;
72941;SDS011;69665;55.822;37.330;2023-11-19T14:03:07;16.25;;;5.45;;
72941;SDS011;69665;55.822;37.330;2023-11-19T14:05:32;17.85;;;4.95;;
72941;SDS011;69665;55.822;37.330;2023-11-19T14:07:58;11.98;;;5.55;;
72941;SDS011;69665;55.822;37.330;2023-11-19T14:10:24;12.45;;;6.05;;
72941;SDS011;69665;55.822;37.330;2023-11-19T14:12:49;12.82;;;4.88;;
72941;SDS011;69665;55.822;37.330;2023-11-19T14:15:15;16.13;;;5.25;;
72941;SDS011;69665;55.822;37.330;2023-11-19T14:17:43;15.38;;;5.55;;
72941;SDS011;69665;55.822;37.330;2023-11-19T14:20:09;11.50;;;5.75;;
72941;SDS011;69665;55.822;37.330;2023-11-19T14:22:39;14.00;;;5.60;;
72941;SDS011;69665;55.822;37.330;2023-11-19T14:25:05;14.60;;;6.50;;
72941;SDS011;69665;55.822;37.330;2023-11-19T14:27:38;19.25;;;6.25;;
72941;SDS011;69665;55.822;37.330;2023-11-19T14:30:04;17.80;;;6.63;;
72941;SDS011;69665;55.822;37.330;2023-11-19T14:32:30;16.10;;;6.32;;
72941;SDS011;69665;55.822;37.330;2023-11-19T14:34:56;17.02;;;7.57;;
72941;SDS011;69665;55.822;37.330;2023-11-19T14:37:21;17.80;;;7.18;;
72941;SDS011;69665;55.822;37.330;2023-11-19T14:39:47;13.90;;;6.25;;
72941;SDS011;69665;55.822;37.330;2023-11-19T14:42:15;14.68;;;6.45;;